createdAt,value
2019-05-29T00:01:00.080Z,2.00
2019-05-29T00:03:28.020Z,2.37
2019-05-29T00:05:55.902Z,2.15
2019-05-29T00:08:23.810Z,1.95
2019-05-29T00:10:53.183Z,2.37
2019-05-29T00:13:22.242Z,2.47
2019-05-29T00:15:56.228Z,2.35
2019-05-29T00:18:24.107Z,2.40
2019-05-29T00:20:52.362Z,2.20
2019-05-29T00:23:20.777Z,2.10
2019-05-29T00:25:48.624Z,2.30
2019-05-29T00:28:16.821Z,2.37
2019-05-29T00:30:44.774Z,2.40
2019-05-29T00:33:12.750Z,2.00
2019-05-29T00:35:40.639Z,2.35
2019-05-29T00:38:08.594Z,2.25
2019-05-29T00:40:36.447Z,2.70
2019-05-29T00:43:04.296Z,1.90
2019-05-29T00:45:32.930Z,2.25
2019-05-29T00:48:00.900Z,2.42
2019-05-29T00:50:31.132Z,2.77
2019-05-29T00:52:58.989Z,2.30
2019-05-29T00:55:26.866Z,2.15
2019-05-29T00:57:54.856Z,2.50
2019-05-29T01:00:22.806Z,1.95
2019-05-29T01:02:50.778Z,2.40
2019-05-29T01:05:20.731Z,2.05
2019-05-29T01:07:48.602Z,2.30
2019-05-29T01:10:16.828Z,2.50
2019-05-29T01:12:48.142Z,2.20
2019-05-29T01:15:19.601Z,2.92
2019-05-29T01:17:47.491Z,2.42
2019-05-29T01:20:15.978Z,2.65
2019-05-29T01:22:43.901Z,2.20
2019-05-29T01:25:12.407Z,2.40
2019-05-29T01:27:41.884Z,2.00
2019-05-29T01:30:09.804Z,2.02
2019-05-29T01:32:37.670Z,2.02
2019-05-29T01:35:07.176Z,2.30
2019-05-29T01:37:35.076Z,2.20
2019-05-29T01:40:18.683Z,2.55
2019-05-29T01:42:34.062Z,2.70
2019-05-29T01:45:07.668Z,2.27
2019-05-29T01:47:32.678Z,2.02
2019-05-29T01:50:00.559Z,2.87
2019-05-29T01:52:29.660Z,3.00
2019-05-29T01:54:57.636Z,2.20
2019-05-29T01:57:25.894Z,2.50
2019-05-29T01:59:53.759Z,2.33
2019-05-29T02:02:21.949Z,2.30
2019-05-29T02:04:50.076Z,2.47
2019-05-29T02:07:18.009Z,2.92
2019-05-29T02:09:45.884Z,2.95
2019-05-29T02:12:19.002Z,2.75
2019-05-29T02:14:46.569Z,3.10
2019-05-29T02:17:15.500Z,2.98
2019-05-29T02:19:47.729Z,3.45
2019-05-29T02:22:16.967Z,3.10
2019-05-29T02:24:45.042Z,2.70
2019-05-29T02:27:12.995Z,2.75
2019-05-29T02:29:40.864Z,3.30
2019-05-29T02:32:08.806Z,2.98
2019-05-29T02:34:36.690Z,3.08
2019-05-29T02:37:04.636Z,3.10
2019-05-29T02:39:35.555Z,2.90
2019-05-29T02:42:03.411Z,3.00
2019-05-29T02:44:31.270Z,2.98
2019-05-29T02:46:59.413Z,2.70
2019-05-29T02:49:28.134Z,3.10
2019-05-29T02:51:56.458Z,2.80
2019-05-29T02:54:24.914Z,2.80
2019-05-29T02:56:53.939Z,2.60
2019-05-29T02:59:23.425Z,3.02
2019-05-29T03:01:51.438Z,3.00
2019-05-29T03:04:21.705Z,3.15
2019-05-29T03:06:49.764Z,3.30
2019-05-29T03:09:19.167Z,3.15
2019-05-29T03:11:47.054Z,2.52
2019-05-29T03:14:14.930Z,2.95
2019-05-29T03:16:42.804Z,3.30
2019-05-29T03:19:10.766Z,2.90
2019-05-29T03:21:38.598Z,3.27
2019-05-29T03:24:07.925Z,3.15
2019-05-29T03:26:35.842Z,2.90
2019-05-29T03:29:03.995Z,3.22
2019-05-29T03:31:41.957Z,3.40
2019-05-29T03:34:01.516Z,3.30
2019-05-29T03:36:37.620Z,3.52
2019-05-29T03:38:59.813Z,3.15
2019-05-29T03:41:28.239Z,3.20
2019-05-29T03:43:57.310Z,3.40
2019-05-29T03:46:34.289Z,3.60
2019-05-29T03:49:04.323Z,3.30
2019-05-29T03:51:34.046Z,3.40
2019-05-29T03:54:03.451Z,4.10
2019-05-29T03:56:32.598Z,3.40
2019-05-29T03:59:00.712Z,4.08
2019-05-29T04:01:29.098Z,3.55
2019-05-29T04:03:58.306Z,3.52
2019-05-29T04:06:26.960Z,3.77
2019-05-29T04:08:57.937Z,3.50
2019-05-29T04:11:27.337Z,3.90
2019-05-29T04:13:55.445Z,4.17
2019-05-29T04:16:23.928Z,3.90
2019-05-29T04:18:51.981Z,3.47
2019-05-29T04:21:20.367Z,3.50
2019-05-29T04:23:49.506Z,3.70
2019-05-29T04:26:19.518Z,3.65
2019-05-29T04:28:49.153Z,4.20
2019-05-29T04:31:17.044Z,3.80
2019-05-29T04:33:47.196Z,4.40
2019-05-29T04:36:15.120Z,3.92
2019-05-29T04:38:42.984Z,3.87
2019-05-29T04:41:11.258Z,4.00
2019-05-29T04:43:40.854Z,3.80
2019-05-29T04:46:13.179Z,5.03
2019-05-29T04:48:41.014Z,4.70
2019-05-29T04:51:08.959Z,4.53
2019-05-29T04:53:37.727Z,4.62
2019-05-29T04:56:09.142Z,4.55
2019-05-29T04:58:39.215Z,4.35
2019-05-29T05:01:07.200Z,5.60
2019-05-29T05:03:37.171Z,5.95
2019-05-29T05:06:05.363Z,6.17
2019-05-29T05:08:33.401Z,6.30
2019-05-29T05:11:01.337Z,6.00
2019-05-29T05:13:31.377Z,5.70
2019-05-29T05:16:00.773Z,6.12
2019-05-29T05:18:29.767Z,6.58
2019-05-29T05:20:59.044Z,5.37
2019-05-29T05:23:26.964Z,5.40
2019-05-29T05:25:56.172Z,5.53
2019-05-29T05:28:24.035Z,6.28
2019-05-29T05:30:51.878Z,4.92
2019-05-29T05:33:19.714Z,5.40
2019-05-29T05:35:47.555Z,4.97
2019-05-29T05:38:15.733Z,4.40
2019-05-29T05:40:43.546Z,5.12
2019-05-29T05:43:23.789Z,5.15
2019-05-29T05:45:41.203Z,5.22
2019-05-29T05:48:09.339Z,4.10
2019-05-29T05:50:37.328Z,3.60
2019-05-29T05:53:05.243Z,3.62
2019-05-29T05:55:33.482Z,4.25
2019-05-29T05:58:01.546Z,4.00
2019-05-29T06:00:31.696Z,3.80
2019-05-29T06:02:59.946Z,3.10
2019-05-29T06:05:27.769Z,3.60
2019-05-29T06:07:55.674Z,3.12
2019-05-29T06:10:23.486Z,3.27
2019-05-29T06:12:51.348Z,3.05
2019-05-29T06:15:19.298Z,3.45
2019-05-29T06:18:05.081Z,3.02
2019-05-29T06:20:16.795Z,3.45
2019-05-29T06:22:44.633Z,3.10
2019-05-29T06:25:12.481Z,3.55
2019-05-29T06:27:41.374Z,3.30
2019-05-29T06:30:09.655Z,3.10
2019-05-29T06:32:37.513Z,4.08
2019-05-29T06:35:05.557Z,2.70
2019-05-29T06:37:33.670Z,3.25
2019-05-29T06:40:01.636Z,3.60
2019-05-29T06:42:29.441Z,3.05
2019-05-29T06:44:57.308Z,3.52
2019-05-29T06:47:25.152Z,2.70
2019-05-29T06:49:53.010Z,2.60
2019-05-29T06:52:21.047Z,2.83
2019-05-29T06:54:48.962Z,2.92
2019-05-29T06:57:16.810Z,2.80
2019-05-29T06:59:44.791Z,2.60
2019-05-29T07:02:12.647Z,2.50
2019-05-29T07:04:40.507Z,2.25
2019-05-29T07:07:08.346Z,2.30
2019-05-29T07:09:36.897Z,1.95
2019-05-29T07:12:04.833Z,1.77
2019-05-29T07:14:32.721Z,2.65
2019-05-29T07:17:00.564Z,1.87
2019-05-29T07:19:47.142Z,1.65
2019-05-29T07:21:58.056Z,1.60
2019-05-29T07:24:25.862Z,1.55
2019-05-29T07:26:53.727Z,2.45
2019-05-29T07:29:21.734Z,1.90
2019-05-29T07:31:49.578Z,1.62
2019-05-29T07:34:17.446Z,1.45
2019-05-29T07:36:46.011Z,1.65
2019-05-29T07:39:14.012Z,1.65
2019-05-29T07:41:41.874Z,1.70
2019-05-29T07:44:09.702Z,1.45
2019-05-29T07:46:37.907Z,1.80
2019-05-29T07:49:05.789Z,1.80
2019-05-29T07:51:33.678Z,1.65
2019-05-29T07:54:01.514Z,1.92
2019-05-29T07:56:29.355Z,2.20
2019-05-29T07:59:03.347Z,1.80
2019-05-29T08:01:30.342Z,1.70
2019-05-29T08:03:56.479Z,1.37
2019-05-29T08:06:24.335Z,1.95
2019-05-29T08:08:52.183Z,2.00
2019-05-29T08:11:20.026Z,2.00
2019-05-29T08:13:47.838Z,2.37
2019-05-29T08:16:15.719Z,3.27
2019-05-29T08:18:47.227Z,1.98
2019-05-29T08:21:13.134Z,2.00
2019-05-29T08:23:42.194Z,1.95
2019-05-29T08:26:10.174Z,2.05
2019-05-29T08:28:38.003Z,1.70
2019-05-29T08:31:05.861Z,1.70
2019-05-29T08:33:33.685Z,1.60
2019-05-29T08:36:01.548Z,1.92
2019-05-29T08:38:29.590Z,2.50
2019-05-29T08:40:57.473Z,2.00
2019-05-29T08:43:25.318Z,2.20
2019-05-29T08:45:53.126Z,2.35
2019-05-29T08:48:20.990Z,2.25
2019-05-29T08:50:49.866Z,1.92
2019-05-29T08:53:17.996Z,1.70
2019-05-29T08:55:46.086Z,2.10
2019-05-29T08:58:14.215Z,2.55
2019-05-29T09:00:46.769Z,2.27
2019-05-29T09:03:11.647Z,2.10
2019-05-29T09:05:39.887Z,3.00
2019-05-29T09:08:07.790Z,2.55
2019-05-29T09:10:35.619Z,2.60
2019-05-29T09:13:05.060Z,2.80
2019-05-29T09:15:33.340Z,2.33
2019-05-29T09:18:01.208Z,2.40
2019-05-29T09:20:50.116Z,2.05
2019-05-29T09:22:58.601Z,2.27
2019-05-29T09:25:26.453Z,2.12
2019-05-29T09:27:54.310Z,1.87
2019-05-29T09:30:22.135Z,2.00
2019-05-29T09:32:52.367Z,2.25
2019-05-29T09:35:21.401Z,2.02
2019-05-29T09:37:49.087Z,2.35
2019-05-29T09:40:17.114Z,2.30
2019-05-29T09:42:45.010Z,2.20
2019-05-29T09:45:12.972Z,2.42
2019-05-29T09:47:40.830Z,2.20
2019-05-29T09:50:08.735Z,2.60
2019-05-29T09:52:36.736Z,2.50
2019-05-29T09:55:04.648Z,2.12
2019-05-29T09:57:32.477Z,2.00
2019-05-29T10:00:02.159Z,1.87
2019-05-29T10:02:29.891Z,2.25
2019-05-29T10:04:58.579Z,1.60
2019-05-29T10:07:27.334Z,2.10
2019-05-29T10:09:56.835Z,2.37
2019-05-29T10:12:24.831Z,1.60
2019-05-29T10:14:54.195Z,2.20
2019-05-29T10:17:22.279Z,2.50
2019-05-29T10:19:50.178Z,2.15
2019-05-29T10:22:18.050Z,2.37
2019-05-29T10:24:45.939Z,2.10
2019-05-29T10:27:13.786Z,2.20
2019-05-29T10:29:42.462Z,2.05
2019-05-29T10:32:10.366Z,2.17
2019-05-29T10:34:38.214Z,1.85
2019-05-29T10:37:06.026Z,1.80
2019-05-29T10:39:33.883Z,1.90
2019-05-29T10:42:01.735Z,2.00
2019-05-29T10:44:29.573Z,2.05
2019-05-29T10:46:57.412Z,1.95
2019-05-29T10:49:25.406Z,1.77
2019-05-29T10:52:07.672Z,2.00
2019-05-29T10:54:22.845Z,2.27
2019-05-29T10:56:50.923Z,2.55
2019-05-29T10:59:18.957Z,2.20
2019-05-29T11:01:47.154Z,2.22
2019-05-29T11:04:15.122Z,2.00
2019-05-29T11:06:43.030Z,2.10
2019-05-29T11:09:10.955Z,2.25
2019-05-29T11:11:38.851Z,1.77
2019-05-29T11:14:06.728Z,1.57
2019-05-29T11:16:34.596Z,2.47
2019-05-29T11:19:02.444Z,1.67
2019-05-29T11:21:30.357Z,1.67
2019-05-29T11:23:58.357Z,1.60
2019-05-29T11:26:26.375Z,2.00
2019-05-29T11:28:54.470Z,2.00
2019-05-29T11:31:22.519Z,1.95
2019-05-29T11:33:50.775Z,1.92
2019-05-29T11:36:18.661Z,2.33
2019-05-29T11:38:46.512Z,1.80
2019-05-29T11:41:25.955Z,1.72
2019-05-29T11:43:44.085Z,2.33
2019-05-29T11:46:13.850Z,2.20
2019-05-29T11:48:41.715Z,2.47
2019-05-29T11:51:09.630Z,2.40
2019-05-29T11:53:37.511Z,2.30
2019-05-29T11:56:05.486Z,2.65
2019-05-29T11:58:33.359Z,2.45
2019-05-29T12:01:01.554Z,2.40
2019-05-29T12:03:29.437Z,2.70
2019-05-29T12:05:57.623Z,2.35
2019-05-29T12:08:25.605Z,2.80
2019-05-29T12:10:53.432Z,2.50
2019-05-29T12:13:21.369Z,2.70
2019-05-29T12:15:49.295Z,2.92
2019-05-29T12:18:23.327Z,3.90
2019-05-29T12:20:47.049Z,2.75
2019-05-29T12:23:25.837Z,1.98
2019-05-29T12:25:44.464Z,2.62
2019-05-29T12:28:12.341Z,2.67
2019-05-29T12:30:40.243Z,2.90
2019-05-29T12:33:08.134Z,3.00
2019-05-29T12:35:36.018Z,2.45
2019-05-29T12:38:03.956Z,2.35
2019-05-29T12:40:31.802Z,2.67
2019-05-29T12:43:00.209Z,2.50
2019-05-29T12:45:28.503Z,2.40
2019-05-29T12:47:58.062Z,3.35
2019-05-29T12:50:26.177Z,3.00
2019-05-29T12:52:55.575Z,2.90
2019-05-29T12:55:23.765Z,2.42
2019-05-29T12:57:52.016Z,2.85
2019-05-29T13:00:20.325Z,2.35
2019-05-29T13:02:48.170Z,2.35
2019-05-29T13:05:20.496Z,2.70
2019-05-29T13:07:45.908Z,2.50
2019-05-29T13:10:29.257Z,2.62
2019-05-29T13:12:43.863Z,2.35
2019-05-29T13:15:11.878Z,3.30
2019-05-29T13:17:39.716Z,2.30
2019-05-29T13:20:20.650Z,2.75
2019-05-29T13:22:37.582Z,2.60
2019-05-29T13:25:05.842Z,2.08
2019-05-29T13:27:33.657Z,2.17
2019-05-29T13:30:03.832Z,2.80
2019-05-29T13:32:32.259Z,2.10
2019-05-29T13:35:00.381Z,2.17
2019-05-29T13:37:28.350Z,2.65
2019-05-29T13:39:56.222Z,2.12
2019-05-29T13:42:24.115Z,1.92
2019-05-29T13:44:52.616Z,2.35
2019-05-29T13:47:21.060Z,2.20
2019-05-29T13:49:48.875Z,2.35
2019-05-29T13:52:16.767Z,1.60
2019-05-29T13:54:44.579Z,1.80
2019-05-29T13:57:12.413Z,1.60
2019-05-29T13:59:40.241Z,1.75
2019-05-29T14:02:08.748Z,1.75
2019-05-29T14:04:37.690Z,2.02
2019-05-29T14:07:06.757Z,1.87
2019-05-29T14:09:34.707Z,2.37
2019-05-29T14:12:03.064Z,1.98
2019-05-29T14:14:30.992Z,1.62
2019-05-29T14:17:00.333Z,1.70
2019-05-29T14:19:28.368Z,1.90
2019-05-29T14:21:56.233Z,1.40
2019-05-29T14:24:29.580Z,4.40
2019-05-29T14:26:53.654Z,2.00
2019-05-29T14:29:21.511Z,1.52
2019-05-29T14:31:49.404Z,1.10
2019-05-29T14:34:17.214Z,1.55
2019-05-29T14:36:45.070Z,1.37
2019-05-29T14:39:12.954Z,1.05
2019-05-29T14:41:40.888Z,1.25
2019-05-29T14:44:09.867Z,1.20
2019-05-29T14:46:37.971Z,1.35
2019-05-29T14:49:06.438Z,1.15
2019-05-29T14:51:34.434Z,1.55
2019-05-29T14:54:02.776Z,1.05
2019-05-29T14:56:30.752Z,1.10
2019-05-29T14:58:58.972Z,1.15
2019-05-29T15:01:26.857Z,1.10
2019-05-29T15:03:54.775Z,1.17
2019-05-29T15:06:22.676Z,1.10
2019-05-29T15:08:50.579Z,1.02
2019-05-29T15:11:18.479Z,1.10
2019-05-29T15:13:46.361Z,1.20
2019-05-29T15:16:14.922Z,1.27
2019-05-29T15:18:42.967Z,1.20
2019-05-29T15:21:11.146Z,1.15
2019-05-29T15:23:39.420Z,1.00
2019-05-29T15:26:07.517Z,1.27
2019-05-29T15:28:35.459Z,1.37
2019-05-29T15:31:03.456Z,1.20
2019-05-29T15:33:31.514Z,1.25
2019-05-29T15:35:59.351Z,1.00
2019-05-29T15:38:27.235Z,1.30
2019-05-29T15:40:55.102Z,1.10
2019-05-29T15:43:22.988Z,1.10
2019-05-29T15:45:50.898Z,1.35
2019-05-29T15:48:18.792Z,1.05
2019-05-29T15:50:46.691Z,1.25
2019-05-29T15:53:15.185Z,1.10
2019-05-29T15:55:43.198Z,0.90
2019-05-29T15:58:11.216Z,1.05
2019-05-29T16:00:39.206Z,1.00
2019-05-29T16:03:07.629Z,1.10
2019-05-29T16:05:35.931Z,1.00
2019-05-29T16:08:03.934Z,1.02
2019-05-29T16:10:31.847Z,1.00
2019-05-29T16:12:59.696Z,1.00
2019-05-29T16:15:27.607Z,1.22
2019-05-29T16:17:55.456Z,1.25
2019-05-29T16:20:24.249Z,0.90
2019-05-29T16:22:52.074Z,1.25
2019-05-29T16:25:37.294Z,1.32
2019-05-29T16:27:49.514Z,1.00
2019-05-29T16:30:17.884Z,1.52
2019-05-29T16:32:45.928Z,2.00
2019-05-29T16:35:14.933Z,0.95
2019-05-29T16:37:43.066Z,1.15
2019-05-29T16:40:11.827Z,1.10
2019-05-29T16:42:39.865Z,1.15
2019-05-29T16:45:08.243Z,1.35
2019-05-29T16:47:36.098Z,1.10
2019-05-29T16:50:04.787Z,0.90
2019-05-29T16:52:32.658Z,0.90
2019-05-29T16:55:00.627Z,1.00
2019-05-29T16:57:28.602Z,1.10
2019-05-29T16:59:56.430Z,1.00
2019-05-29T17:02:24.323Z,1.30
2019-05-29T17:04:52.265Z,2.05
2019-05-29T17:07:20.173Z,1.32
2019-05-29T17:09:48.035Z,1.00
2019-05-29T17:12:16.341Z,1.20
2019-05-29T17:14:47.195Z,1.15
2019-05-29T17:17:18.625Z,1.10
2019-05-29T17:19:46.671Z,0.80
2019-05-29T17:22:18.894Z,1.05
2019-05-29T17:24:48.566Z,0.90
2019-05-29T17:27:16.805Z,1.00
2019-05-29T17:29:46.852Z,1.00
2019-05-29T17:32:14.853Z,0.90
2019-05-29T17:34:42.776Z,1.10
2019-05-29T17:37:10.742Z,1.00
2019-05-29T17:39:38.650Z,1.10
2019-05-29T17:42:09.005Z,0.98
2019-05-29T17:44:36.975Z,1.07
2019-05-29T17:47:06.374Z,1.20
2019-05-29T17:49:35.012Z,0.95
2019-05-29T17:52:05.979Z,1.70
2019-05-29T17:54:34.319Z,1.10
2019-05-29T17:57:02.265Z,1.00
2019-05-29T17:59:31.411Z,0.90
2019-05-29T18:01:59.309Z,0.90
2019-05-29T18:04:27.258Z,0.95
2019-05-29T18:06:56.621Z,0.98
2019-05-29T18:09:27.952Z,1.07
2019-05-29T18:11:56.752Z,1.82
2019-05-29T18:14:25.352Z,1.12
2019-05-29T18:16:53.750Z,1.22
2019-05-29T18:19:21.791Z,1.12
2019-05-29T18:21:49.681Z,1.10
2019-05-29T18:24:17.877Z,1.10
2019-05-29T18:26:47.390Z,1.37
2019-05-29T18:29:20.109Z,0.90
2019-05-29T18:31:48.049Z,1.15
2019-05-29T18:34:16.658Z,1.10
2019-05-29T18:36:46.376Z,1.20
2019-05-29T18:39:15.464Z,0.90
2019-05-29T18:41:43.836Z,0.90
2019-05-29T18:44:11.812Z,1.22
2019-05-29T18:46:40.161Z,1.07
2019-05-29T18:49:08.025Z,1.00
2019-05-29T18:51:35.899Z,1.10
2019-05-29T18:54:03.815Z,1.20
2019-05-29T18:56:32.269Z,1.10
2019-05-29T18:59:00.314Z,1.20
2019-05-29T19:01:29.913Z,2.17
2019-05-29T19:03:58.168Z,1.05
2019-05-29T19:06:27.566Z,1.30
2019-05-29T19:08:56.080Z,1.30
2019-05-29T19:11:24.037Z,0.98
2019-05-29T19:13:53.215Z,1.30
2019-05-29T19:16:23.856Z,1.05
2019-05-29T19:18:51.971Z,1.25
2019-05-29T19:21:20.037Z,1.35
2019-05-29T19:23:47.990Z,1.10
2019-05-29T19:26:15.965Z,1.20
2019-05-29T19:28:43.952Z,1.10
2019-05-29T19:31:11.819Z,1.20
2019-05-29T19:33:39.770Z,1.90
2019-05-29T19:36:09.959Z,1.35
2019-05-29T19:38:37.842Z,1.30
2019-05-29T19:41:07.080Z,1.80
2019-05-29T19:43:34.942Z,1.30
2019-05-29T19:46:02.862Z,1.40
2019-05-29T19:48:30.910Z,1.47
2019-05-29T19:50:58.904Z,1.47
2019-05-29T19:53:29.427Z,1.80
2019-05-29T19:55:57.461Z,2.00
2019-05-29T19:58:25.693Z,1.87
2019-05-29T20:00:53.696Z,1.80
2019-05-29T20:03:21.822Z,1.77
2019-05-29T20:05:49.790Z,1.62
2019-05-29T20:08:17.713Z,1.62
2019-05-29T20:10:45.552Z,1.50
2019-05-29T20:13:13.526Z,1.37
2019-05-29T20:15:41.574Z,1.75
2019-05-29T20:18:09.661Z,1.55
2019-05-29T20:20:38.611Z,1.65
2019-05-29T20:23:06.818Z,1.92
2019-05-29T20:25:37.026Z,1.45
2019-05-29T20:28:06.698Z,1.85
2019-05-29T20:30:34.610Z,1.40
2019-05-29T20:33:04.260Z,2.60
2019-05-29T20:35:32.785Z,1.60
2019-05-29T20:40:37.204Z,1.70
2019-05-29T20:43:05.318Z,1.55
2019-05-29T20:45:33.399Z,1.27
2019-05-29T20:48:01.322Z,1.57
2019-05-29T20:50:29.197Z,1.65
2019-05-29T20:52:57.164Z,1.30
2019-05-29T20:55:25.138Z,1.35
2019-05-29T20:57:53.003Z,1.80
2019-05-29T21:00:20.933Z,1.50
2019-05-29T21:02:48.806Z,2.00
2019-05-29T21:05:16.839Z,1.50
2019-05-29T21:07:44.700Z,1.90
2019-05-29T21:10:12.893Z,1.75
2019-05-29T21:12:45.378Z,1.80
2019-05-29T21:15:11.691Z,1.50
2019-05-29T21:17:39.975Z,1.92
2019-05-29T21:20:08.050Z,1.50
2019-05-29T21:22:36.791Z,1.45
2019-05-29T21:25:09.614Z,1.30
2019-05-29T21:27:35.066Z,1.50
2019-05-29T21:30:03.057Z,1.40
2019-05-29T21:32:31.206Z,1.30
2019-05-29T21:34:59.110Z,1.70
2019-05-29T21:37:27.027Z,1.60
2019-05-29T21:39:54.999Z,1.75
2019-05-29T21:42:22.904Z,1.55
2019-05-29T21:44:50.873Z,1.82
2019-05-29T21:47:18.847Z,1.45
2019-05-29T21:49:49.990Z,1.50
2019-05-29T21:52:18.261Z,1.67
2019-05-29T21:54:47.670Z,1.40
2019-05-29T21:57:15.817Z,1.57
2019-05-29T21:59:43.865Z,1.60
2019-05-29T22:02:11.998Z,1.50
2019-05-29T22:04:40.363Z,1.60
2019-05-29T22:07:08.280Z,1.62
2019-05-29T22:09:36.342Z,1.52
2019-05-29T22:12:04.274Z,1.70
2019-05-29T22:14:32.142Z,1.55
2019-05-29T22:17:01.190Z,1.90
2019-05-29T22:19:29.248Z,2.17
2019-05-29T22:21:59.623Z,1.72
2019-05-29T22:24:27.550Z,1.50
2019-05-29T22:26:55.395Z,1.80
2019-05-29T22:29:23.227Z,2.05
2019-05-29T22:31:51.393Z,1.75
2019-05-29T22:34:19.328Z,1.90
2019-05-29T22:36:47.218Z,1.85
2019-05-29T22:39:15.159Z,1.60
2019-05-29T22:41:43.061Z,1.67
2019-05-29T22:44:11.022Z,1.60
2019-05-29T22:46:39.156Z,1.47
2019-05-29T22:49:07.122Z,1.67
2019-05-29T22:51:35.069Z,1.20
2019-05-29T22:54:03.938Z,1.72
2019-05-29T22:56:34.132Z,1.62
2019-05-29T22:59:02.299Z,1.25
2019-05-29T23:01:30.434Z,1.75
2019-05-29T23:03:58.283Z,1.37
2019-05-29T23:06:30.263Z,1.75
2019-05-29T23:08:58.506Z,1.45
2019-05-29T23:11:26.506Z,1.57
2019-05-29T23:13:54.393Z,1.60
2019-05-29T23:16:22.314Z,1.52
2019-05-29T23:18:50.146Z,1.50
2019-05-29T23:21:17.977Z,1.92
2019-05-29T23:23:45.926Z,1.35
2019-05-29T23:26:13.784Z,1.50
2019-05-29T23:28:41.949Z,1.60
2019-05-29T23:31:09.907Z,1.72
2019-05-29T23:33:37.789Z,1.57
2019-05-29T23:36:05.625Z,1.70
2019-05-29T23:38:33.477Z,1.40
2019-05-29T23:41:01.535Z,1.70
2019-05-29T23:43:29.495Z,1.95
2019-05-29T23:45:57.451Z,1.70
2019-05-29T23:48:25.431Z,1.60
2019-05-29T23:50:53.451Z,1.77
2019-05-29T23:53:22.975Z,1.50
2019-05-29T23:55:50.858Z,1.80
2019-05-29T23:58:18.746Z,1.50
